Terminal Aerodrome Forecast
Issued by NWS

Home | Current Version | Previous Version | Text Only | Print | Product List | Glossary On
Versions: 1 2 3 4 5 6 7 8 9 10 11 12 13 14
000
FTUS41 KBTV 011100
TAFRUT
TAF
KRUT 011120Z 0112/0212 15005KT P6SM SCT007 OVC014
     FM011700 06002KT P6SM OVC035
     FM020000 10010KT P6SM BKN015 OVC035
     FM020400 13004KT P6SM SCT006 OVC015
      AMD LTD TO CLD VIS AND WIND=

USA.gov is the U.S. government's official web portal to all federal, state and local government web resources and services.